sensor_id;sensor_type;location;lat;lon;timestamp;pressure;altitude;pressure_sealevel;temperature;humidity
3748;BME280;1889;50.058;8.688;2022-09-13T00:01:33;99840.14;;;18.17;65.17
3748;BME280;1889;50.058;8.688;2022-09-13T00:04:03;99825.59;;;18.15;65.21
3748;BME280;1889;50.058;8.688;2022-09-13T00:06:32;99826.59;;;18.21;65.06
3748;BME280;1889;50.058;8.688;2022-09-13T00:09:01;99826.59;;;18.21;65.06
3748;BME280;1889;50.058;8.688;2022-09-13T00:11:31;99818.52;;;18.23;64.85
3748;BME280;1889;50.058;8.688;2022-09-13T00:14:00;99824.87;;;18.20;64.97
3748;BME280;1889;50.058;8.688;2022-09-13T00:16:30;99825.75;;;18.12;65.24
3748;BME280;1889;50.058;8.688;2022-09-13T00:19:00;99825.75;;;18.12;65.24
3748;BME280;1889;50.058;8.688;2022-09-13T00:21:29;99814.17;;;18.05;65.26
3748;BME280;1889;50.058;8.688;2022-09-13T00:23:59;99818.08;;;18.15;64.97
3748;BME280;1889;50.058;8.688;2022-09-13T00:26:28;99812.03;;;18.11;65.17
3748;BME280;1889;50.058;8.688;2022-09-13T00:28:58;99806.39;;;18.09;65.48
3748;BME280;1889;50.058;8.688;2022-09-13T00:31:28;99802.50;;;18.07;65.08
3748;BME280;1889;50.058;8.688;2022-09-13T00:33:59;99802.50;;;18.07;65.08
3748;BME280;1889;50.058;8.688;2022-09-13T00:36:29;99789.81;;;18.04;65.20
3748;BME280;1889;50.058;8.688;2022-09-13T00:39:00;99784.48;;;18.04;65.17
3748;BME280;1889;50.058;8.688;2022-09-13T00:41:29;99789.28;;;17.97;65.59
3748;BME280;1889;50.058;8.688;2022-09-13T00:44:00;99787.42;;;17.90;65.50
3748;BME280;1889;50.058;8.688;2022-09-13T00:46:41;99787.42;;;17.90;65.50
3748;BME280;1889;50.058;8.688;2022-09-13T00:49:20;99779.72;;;17.93;65.50
3748;BME280;1889;50.058;8.688;2022-09-13T00:51:59;99786.84;;;17.92;65.29
3748;BME280;1889;50.058;8.688;2022-09-13T00:54:30;99786.84;;;17.92;65.29
3748;BME280;1889;50.058;8.688;2022-09-13T00:57:02;99771.13;;;17.88;65.42
3748;BME280;1889;50.058;8.688;2022-09-13T00:59:43;99769.80;;;17.88;65.80
3748;BME280;1889;50.058;8.688;2022-09-13T01:02:14;99764.39;;;17.89;65.59
3748;BME280;1889;50.058;8.688;2022-09-13T01:04:45;99767.45;;;17.90;65.36
3748;BME280;1889;50.058;8.688;2022-09-13T01:07:15;99767.61;;;17.87;65.22
3748;BME280;1889;50.058;8.688;2022-09-13T01:09:47;99767.61;;;17.87;65.22
3748;BME280;1889;50.058;8.688;2022-09-13T01:15:22;99755.48;;;17.82;65.54
3748;BME280;1889;50.058;8.688;2022-09-13T01:17:52;99757.13;;;17.76;65.68
3748;BME280;1889;50.058;8.688;2022-09-13T01:20:24;99758.45;;;17.76;65.76
3748;BME280;1889;50.058;8.688;2022-09-13T01:26:18;99757.53;;;17.68;66.11
3748;BME280;1889;50.058;8.688;2022-09-13T01:31:40;99772.97;;;17.62;66.46
3748;BME280;1889;50.058;8.688;2022-09-13T01:34:22;99778.26;;;17.53;65.80
3748;BME280;1889;50.058;8.688;2022-09-13T01:40:04;99774.73;;;17.52;65.88
3748;BME280;1889;50.058;8.688;2022-09-13T01:43:03;99775.85;;;17.48;66.66
3748;BME280;1889;50.058;8.688;2022-09-13T01:48:23;99755.25;;;17.43;65.96
3748;BME280;1889;50.058;8.688;2022-09-13T01:51:03;99745.94;;;17.43;66.21
3748;BME280;1889;50.058;8.688;2022-09-13T01:53:51;99736.73;;;17.42;66.61
3748;BME280;1889;50.058;8.688;2022-09-13T01:56:26;99736.73;;;17.42;66.61
3748;BME280;1889;50.058;8.688;2022-09-13T01:59:07;99721.63;;;17.42;66.61
3748;BME280;1889;50.058;8.688;2022-09-13T02:01:34;99716.78;;;17.42;66.24
3748;BME280;1889;50.058;8.688;2022-09-13T02:04:13;99719.33;;;17.43;66.32
3748;BME280;1889;50.058;8.688;2022-09-13T02:06:50;99726.63;;;17.40;66.59
3748;BME280;1889;50.058;8.688;2022-09-13T02:09:22;99748.45;;;17.21;66.88
3748;BME280;1889;50.058;8.688;2022-09-13T02:11:55;99756.11;;;16.92;68.91
3748;BME280;1889;50.058;8.688;2022-09-13T02:14:38;99756.51;;;16.93;68.25
3748;BME280;1889;50.058;8.688;2022-09-13T02:17:11;99770.19;;;16.86;69.03
3748;BME280;1889;50.058;8.688;2022-09-13T02:22:22;99774.66;;;16.94;68.24
3748;BME280;1889;50.058;8.688;2022-09-13T02:24:54;99780.35;;;17.03;68.11
3748;BME280;1889;50.058;8.688;2022-09-13T02:27:25;99781.31;;;17.02;67.48
3748;BME280;1889;50.058;8.688;2022-09-13T02:29:59;99783.63;;;16.91;68.37
3748;BME280;1889;50.058;8.688;2022-09-13T02:32:40;99778.17;;;16.94;67.85
3748;BME280;1889;50.058;8.688;2022-09-13T02:35:12;99780.44;;;16.93;67.87
3748;BME280;1889;50.058;8.688;2022-09-13T02:37:42;99788.81;;;16.94;68.10
3748;BME280;1889;50.058;8.688;2022-09-13T02:40:15;99788.11;;;16.99;67.96
3748;BME280;1889;50.058;8.688;2022-09-13T02:42:49;99790.63;;;17.02;67.91
3748;BME280;1889;50.058;8.688;2022-09-13T02:45:19;99790.45;;;17.05;67.48
3748;BME280;1889;50.058;8.688;2022-09-13T02:53:37;99785.67;;;17.03;67.15
3748;BME280;1889;50.058;8.688;2022-09-13T02:56:34;99780.35;;;17.03;67.69
3748;BME280;1889;50.058;8.688;2022-09-13T02:59:04;99780.21;;;17.06;67.16
3748;BME280;1889;50.058;8.688;2022-09-13T03:01:36;99783.02;;;17.12;67.61
3748;BME280;1889;50.058;8.688;2022-09-13T03:04:06;99779.36;;;17.14;67.06
3748;BME280;1889;50.058;8.688;2022-09-13T03:06:37;99782.09;;;17.13;67.83
3748;BME280;1889;50.058;8.688;2022-09-13T03:09:08;99782.45;;;16.97;67.80
3748;BME280;1889;50.058;8.688;2022-09-13T03:12:00;99780.13;;;16.99;68.00
3748;BME280;1889;50.058;8.688;2022-09-13T03:15:01;99779.48;;;17.03;67.83
3748;BME280;1889;50.058;8.688;2022-09-13T03:17:48;99776.83;;;17.03;67.60
3748;BME280;1889;50.058;8.688;2022-09-13T03:20:16;99763.72;;;17.08;67.61
3748;BME280;1889;50.058;8.688;2022-09-13T03:26:26;99759.19;;;17.10;67.33
3748;BME280;1889;50.058;8.688;2022-09-13T03:31:32;99758.87;;;17.08;67.76
3748;BME280;1889;50.058;8.688;2022-09-13T03:34:11;99754.55;;;17.05;67.74
3748;BME280;1889;50.058;8.688;2022-09-13T03:36:45;99755.34;;;17.07;67.98
3748;BME280;1889;50.058;8.688;2022-09-13T03:42:13;99745.72;;;17.13;67.65
3748;BME280;1889;50.058;8.688;2022-09-13T03:44:39;99747.59;;;17.11;67.86
3748;BME280;1889;50.058;8.688;2022-09-13T03:47:10;99742.52;;;17.15;67.45
3748;BME280;1889;50.058;8.688;2022-09-13T03:49:41;99746.26;;;17.11;67.83
3748;BME280;1889;50.058;8.688;2022-09-13T03:52:11;99757.27;;;16.95;68.69
3748;BME280;1889;50.058;8.688;2022-09-13T03:54:41;99755.15;;;16.76;69.28
3748;BME280;1889;50.058;8.688;2022-09-13T03:57:18;99754.68;;;16.76;69.29
3748;BME280;1889;50.058;8.688;2022-09-13T03:59:52;99750.41;;;16.91;68.92
3748;BME280;1889;50.058;8.688;2022-09-13T04:02:24;99751.80;;;16.90;68.89
3748;BME280;1889;50.058;8.688;2022-09-13T04:04:54;99736.00;;;16.95;68.38
3748;BME280;1889;50.058;8.688;2022-09-13T04:07:24;99736.19;;;17.01;68.66
3748;BME280;1889;50.058;8.688;2022-09-13T04:09:54;99732.41;;;16.96;68.12
3748;BME280;1889;50.058;8.688;2022-09-13T04:12:23;99730.08;;;16.99;68.40
3748;BME280;1889;50.058;8.688;2022-09-13T04:14:54;99731.63;;;17.03;68.29
3748;BME280;1889;50.058;8.688;2022-09-13T04:17:23;99734.61;;;17.05;67.93
3748;BME280;1889;50.058;8.688;2022-09-13T04:19:52;99731.34;;;17.09;68.25
3748;BME280;1889;50.058;8.688;2022-09-13T04:22:22;99728.61;;;17.10;67.65
3748;BME280;1889;50.058;8.688;2022-09-13T04:24:51;99725.95;;;17.10;68.17
3748;BME280;1889;50.058;8.688;2022-09-13T04:27:20;99725.38;;;17.12;67.49
3748;BME280;1889;50.058;8.688;2022-09-13T04:29:50;99725.70;;;17.15;67.84
3748;BME280;1889;50.058;8.688;2022-09-13T04:32:19;99726.95;;;17.16;67.84
3748;BME280;1889;50.058;8.688;2022-09-13T04:34:48;99726.17;;;17.14;67.52
3748;BME280;1889;50.058;8.688;2022-09-13T04:37:18;99736.59;;;17.10;68.19
3748;BME280;1889;50.058;8.688;2022-09-13T04:39:48;99737.81;;;17.12;68.19
3748;BME280;1889;50.058;8.688;2022-09-13T04:42:17;99735.16;;;17.12;67.90
3748;BME280;1889;50.058;8.688;2022-09-13T04:44:46;99742.66;;;17.12;67.51
3748;BME280;1889;50.058;8.688;2022-09-13T04:47:17;99744.56;;;17.10;68.21
3748;BME280;1889;50.058;8.688;2022-09-13T04:49:46;99741.12;;;17.08;67.60
3748;BME280;1889;50.058;8.688;2022-09-13T04:52:15;99745.79;;;17.12;67.44
3748;BME280;1889;50.058;8.688;2022-09-13T04:54:45;99741.73;;;17.13;67.78
3748;BME280;1889;50.058;8.688;2022-09-13T04:57:15;99742.13;;;17.14;67.60
3748;BME280;1889;50.058;8.688;2022-09-13T04:59:45;99739.86;;;17.15;67.63
3748;BME280;1889;50.058;8.688;2022-09-13T05:02:14;99745.58;;;17.16;67.50
3748;BME280;1889;50.058;8.688;2022-09-13T05:04:44;99751.44;;;17.14;67.91
3748;BME280;1889;50.058;8.688;2022-09-13T05:07:14;99757.55;;;17.16;67.49
3748;BME280;1889;50.058;8.688;2022-09-13T05:09:43;99751.83;;;17.15;68.19
3748;BME280;1889;50.058;8.688;2022-09-13T05:12:12;99764.66;;;17.25;67.57
3748;BME280;1889;50.058;8.688;2022-09-13T05:14:42;99768.12;;;17.27;67.49
3748;BME280;1889;50.058;8.688;2022-09-13T05:17:11;99769.52;;;17.25;68.15
3748;BME280;1889;50.058;8.688;2022-09-13T05:19:40;99769.91;;;17.26;67.89
3748;BME280;1889;50.058;8.688;2022-09-13T05:22:09;99766.22;;;17.29;67.76
3748;BME280;1889;50.058;8.688;2022-09-13T05:24:39;99760.61;;;17.26;68.18
3748;BME280;1889;50.058;8.688;2022-09-13T05:27:09;99765.21;;;17.31;68.05
3748;BME280;1889;50.058;8.688;2022-09-13T05:29:39;99767.41;;;17.32;67.86
3748;BME280;1889;50.058;8.688;2022-09-13T05:32:08;99768.34;;;17.31;68.29
3748;BME280;1889;50.058;8.688;2022-09-13T05:34:37;99767.01;;;17.31;67.90
3748;BME280;1889;50.058;8.688;2022-09-13T05:37:07;99766.29;;;17.36;67.88
3748;BME280;1889;50.058;8.688;2022-09-13T05:39:36;99765.28;;;17.30;68.17
3748;BME280;1889;50.058;8.688;2022-09-13T05:42:05;99773.98;;;17.25;68.18
3748;BME280;1889;50.058;8.688;2022-09-13T05:44:35;99784.30;;;17.31;68.31
3748;BME280;1889;50.058;8.688;2022-09-13T05:47:04;99774.59;;;17.38;68.58
3748;BME280;1889;50.058;8.688;2022-09-13T05:49:34;99775.31;;;17.42;67.85
3748;BME280;1889;50.058;8.688;2022-09-13T05:52:03;99784.45;;;17.45;67.77
3748;BME280;1889;50.058;8.688;2022-09-13T05:54:33;99795.48;;;17.29;68.67
3748;BME280;1889;50.058;8.688;2022-09-13T05:57:02;99796.66;;;17.23;69.32
3748;BME280;1889;50.058;8.688;2022-09-13T05:59:31;99799.00;;;17.29;68.74
3748;BME280;1889;50.058;8.688;2022-09-13T06:02:01;99794.14;;;17.20;69.85
3748;BME280;1889;50.058;8.688;2022-09-13T06:04:30;99782.35;;;17.26;69.49
3748;BME280;1889;50.058;8.688;2022-09-13T06:06:59;99780.85;;;17.37;69.48
3748;BME280;1889;50.058;8.688;2022-09-13T06:09:29;99782.65;;;17.45;68.95
3748;BME280;1889;50.058;8.688;2022-09-13T06:14:17;99785.48;;;17.51;68.91
3748;BME280;1889;50.058;8.688;2022-09-13T06:16:46;99789.00;;;17.69;68.46
3748;BME280;1889;50.058;8.688;2022-09-13T06:19:15;99787.45;;;17.73;68.15
3748;BME280;1889;50.058;8.688;2022-09-13T06:21:45;99784.70;;;17.58;68.59
3748;BME280;1889;50.058;8.688;2022-09-13T06:24:14;99772.18;;;17.51;68.61
3748;BME280;1889;50.058;8.688;2022-09-13T06:26:43;99770.95;;;17.67;68.40
3748;BME280;1889;50.058;8.688;2022-09-13T06:29:13;99762.95;;;17.75;68.32
3748;BME280;1889;50.058;8.688;2022-09-13T06:31:43;99764.80;;;17.82;68.31
3748;BME280;1889;50.058;8.688;2022-09-13T06:34:13;99766.74;;;17.87;68.65
3748;BME280;1889;50.058;8.688;2022-09-13T06:36:43;99764.68;;;17.92;67.90
3748;BME280;1889;50.058;8.688;2022-09-13T06:39:12;99763.27;;;17.93;68.22
3748;BME280;1889;50.058;8.688;2022-09-13T06:41:41;99775.11;;;17.97;68.28
3748;BME280;1889;50.058;8.688;2022-09-13T06:44:11;99777.33;;;17.80;69.58
3748;BME280;1889;50.058;8.688;2022-09-13T06:46:40;99781.33;;;17.80;69.67
3748;BME280;1889;50.058;8.688;2022-09-13T06:49:10;99781.33;;;17.80;69.67
3748;BME280;1889;50.058;8.688;2022-09-13T06:51:39;99789.51;;;17.92;69.25
3748;BME280;1889;50.058;8.688;2022-09-13T06:54:08;99789.51;;;17.92;69.25
3748;BME280;1889;50.058;8.688;2022-09-13T06:56:38;99797.36;;;17.87;69.33
3748;BME280;1889;50.058;8.688;2022-09-13T06:59:09;99804.14;;;18.01;68.62
3748;BME280;1889;50.058;8.688;2022-09-13T07:01:40;99808.12;;;18.10;68.19
3748;BME280;1889;50.058;8.688;2022-09-13T07:04:14;99805.51;;;18.17;67.99
3748;BME280;1889;50.058;8.688;2022-09-13T07:06:45;99805.67;;;18.22;67.90
3748;BME280;1889;50.058;8.688;2022-09-13T07:09:17;99801.02;;;18.26;67.82
3748;BME280;1889;50.058;8.688;2022-09-13T07:11:50;99805.64;;;18.31;67.55
3748;BME280;1889;50.058;8.688;2022-09-13T07:14:24;99791.54;;;18.29;67.55
3748;BME280;1889;50.058;8.688;2022-09-13T07:16:54;99791.54;;;18.29;67.55
3748;BME280;1889;50.058;8.688;2022-09-13T07:19:25;99805.92;;;18.09;68.20
3748;BME280;1889;50.058;8.688;2022-09-13T07:21:56;99803.34;;;17.83;69.56
3748;BME280;1889;50.058;8.688;2022-09-13T07:24:25;99803.34;;;17.83;69.56
3748;BME280;1889;50.058;8.688;2022-09-13T07:26:55;99801.98;;;18.16;68.32
3748;BME280;1889;50.058;8.688;2022-09-13T07:29:24;99806.74;;;17.94;69.68
3748;BME280;1889;50.058;8.688;2022-09-13T07:31:54;99807.81;;;18.16;68.57
3748;BME280;1889;50.058;8.688;2022-09-13T07:34:26;99803.11;;;18.12;69.10
3748;BME280;1889;50.058;8.688;2022-09-13T07:36:55;99803.11;;;18.12;69.10
3748;BME280;1889;50.058;8.688;2022-09-13T07:39:24;99805.77;;;18.37;68.43
3748;BME280;1889;50.058;8.688;2022-09-13T07:41:53;99804.09;;;18.43;68.28
3748;BME280;1889;50.058;8.688;2022-09-13T07:44:22;99800.44;;;18.37;68.66
3748;BME280;1889;50.058;8.688;2022-09-13T07:46:52;99796.37;;;18.38;69.33
3748;BME280;1889;50.058;8.688;2022-09-13T07:49:21;99790.34;;;18.50;68.60
3748;BME280;1889;50.058;8.688;2022-09-13T07:51:50;99790.34;;;18.50;68.60
3748;BME280;1889;50.058;8.688;2022-09-13T07:54:19;99781.09;;;18.57;68.31
3748;BME280;1889;50.058;8.688;2022-09-13T07:56:49;99781.83;;;18.68;68.13
3748;BME280;1889;50.058;8.688;2022-09-13T07:59:18;99775.86;;;18.72;68.15
3748;BME280;1889;50.058;8.688;2022-09-13T08:01:49;99769.16;;;18.64;68.73
3748;BME280;1889;50.058;8.688;2022-09-13T08:04:23;99764.09;;;18.83;68.18
3748;BME280;1889;50.058;8.688;2022-09-13T08:06:50;99764.09;;;18.83;68.18
3748;BME280;1889;50.058;8.688;2022-09-13T08:09:20;99755.93;;;18.86;68.13
3748;BME280;1889;50.058;8.688;2022-09-13T08:11:51;99753.29;;;18.93;68.06
3748;BME280;1889;50.058;8.688;2022-09-13T08:14:21;99742.34;;;18.97;68.13
3748;BME280;1889;50.058;8.688;2022-09-13T08:16:55;99749.64;;;19.10;67.72
3748;BME280;1889;50.058;8.688;2022-09-13T08:19:25;99749.27;;;19.16;67.45
3748;BME280;1889;50.058;8.688;2022-09-13T08:21:54;99750.83;;;19.20;67.40
3748;BME280;1889;50.058;8.688;2022-09-13T08:24:23;99742.45;;;19.26;67.36
3748;BME280;1889;50.058;8.688;2022-09-13T08:26:54;99755.31;;;19.26;67.12
3748;BME280;1889;50.058;8.688;2022-09-13T08:29:23;99757.45;;;19.35;66.81
3748;BME280;1889;50.058;8.688;2022-09-13T08:31:52;99754.22;;;19.37;66.72
3748;BME280;1889;50.058;8.688;2022-09-13T08:34:21;99764.39;;;19.38;66.54
3748;BME280;1889;50.058;8.688;2022-09-13T08:36:50;99760.59;;;19.35;66.78
3748;BME280;1889;50.058;8.688;2022-09-13T08:39:20;99767.75;;;19.41;66.63
3748;BME280;1889;50.058;8.688;2022-09-13T08:41:57;99771.36;;;19.40;66.52
3748;BME280;1889;50.058;8.688;2022-09-13T08:44:41;99786.59;;;19.31;66.58
3748;BME280;1889;50.058;8.688;2022-09-13T08:50:05;99782.19;;;19.30;66.86
3748;BME280;1889;50.058;8.688;2022-09-13T08:52:57;99786.11;;;19.55;66.33
3748;BME280;1889;50.058;8.688;2022-09-13T08:55:10;99783.44;;;19.55;66.18
3748;BME280;1889;50.058;8.688;2022-09-13T08:57:39;99787.36;;;19.33;66.44
3748;BME280;1889;50.058;8.688;2022-09-13T09:00:22;99783.59;;;19.22;67.00
3748;BME280;1889;50.058;8.688;2022-09-13T09:02:58;99784.50;;;19.52;66.08
3748;BME280;1889;50.058;8.688;2022-09-13T09:05:28;99777.59;;;19.78;65.24
3748;BME280;1889;50.058;8.688;2022-09-13T09:08:02;99777.59;;;19.78;65.24
3748;BME280;1889;50.058;8.688;2022-09-13T09:10:34;99783.07;;;19.38;66.13
3748;BME280;1889;50.058;8.688;2022-09-13T09:13:17;99789.56;;;19.64;65.63
3748;BME280;1889;50.058;8.688;2022-09-13T09:15:50;99786.55;;;19.70;65.14
3748;BME280;1889;50.058;8.688;2022-09-13T09:18:28;99780.05;;;19.74;64.94
3748;BME280;1889;50.058;8.688;2022-09-13T09:20:56;99771.56;;;19.67;65.05
3748;BME280;1889;50.058;8.688;2022-09-13T09:23:55;99771.86;;;19.70;65.00
3748;BME280;1889;50.058;8.688;2022-09-13T09:26:21;99770.52;;;19.70;65.01
3748;BME280;1889;50.058;8.688;2022-09-13T09:31:52;99766.48;;;19.63;65.59
3748;BME280;1889;50.058;8.688;2022-09-13T09:34:32;99775.27;;;19.35;67.81
3748;BME280;1889;50.058;8.688;2022-09-13T09:39:33;99768.23;;;19.11;68.84
3748;BME280;1889;50.058;8.688;2022-09-13T09:42:16;99773.42;;;19.21;68.14
3748;BME280;1889;50.058;8.688;2022-09-13T09:44:44;99763.44;;;19.39;67.61
3748;BME280;1889;50.058;8.688;2022-09-13T09:47:21;99740.41;;;19.45;67.37
3748;BME280;1889;50.058;8.688;2022-09-13T09:49:58;99739.67;;;19.50;67.37
3748;BME280;1889;50.058;8.688;2022-09-13T09:52:56;99748.30;;;19.47;67.64
3748;BME280;1889;50.058;8.688;2022-09-13T09:55:31;99756.61;;;19.12;70.24
3748;BME280;1889;50.058;8.688;2022-09-13T09:58:04;99764.03;;;19.14;70.16
3748;BME280;1889;50.058;8.688;2022-09-13T10:00:49;99778.85;;;18.97;71.41
3748;BME280;1889;50.058;8.688;2022-09-13T10:03:16;99786.41;;;19.34;69.06
3748;BME280;1889;50.058;8.688;2022-09-13T10:05:40;99786.41;;;19.34;69.06
3748;BME280;1889;50.058;8.688;2022-09-13T10:08:25;99789.09;;;19.34;69.18
3748;BME280;1889;50.058;8.688;2022-09-13T10:10:56;99777.66;;;19.10;70.24
3748;BME280;1889;50.058;8.688;2022-09-13T10:13:28;99780.43;;;19.15;70.08
3748;BME280;1889;50.058;8.688;2022-09-13T10:16:04;99781.34;;;19.07;70.70
3748;BME280;1889;50.058;8.688;2022-09-13T10:18:35;99780.02;;;19.07;70.73
3748;BME280;1889;50.058;8.688;2022-09-13T10:23:49;99776.56;;;19.21;71.27
3748;BME280;1889;50.058;8.688;2022-09-13T10:26:26;99776.56;;;19.21;71.27
3748;BME280;1889;50.058;8.688;2022-09-13T10:28:58;99788.33;;;19.39;70.54
3748;BME280;1889;50.058;8.688;2022-09-13T10:31:34;99788.46;;;19.45;70.58
3748;BME280;1889;50.058;8.688;2022-09-13T10:36:54;99785.38;;;19.67;69.96
3748;BME280;1889;50.058;8.688;2022-09-13T10:39:24;99781.21;;;19.77;69.86
3748;BME280;1889;50.058;8.688;2022-09-13T10:42:02;99786.72;;;19.67;70.88
3748;BME280;1889;50.058;8.688;2022-09-13T10:44:39;99779.87;;;19.70;70.60
3748;BME280;1889;50.058;8.688;2022-09-13T10:47:21;99776.44;;;19.82;70.20
3748;BME280;1889;50.058;8.688;2022-09-13T10:49:53;99784.36;;;19.76;70.70
3748;BME280;1889;50.058;8.688;2022-09-13T10:52:27;99788.61;;;19.65;71.46
3748;BME280;1889;50.058;8.688;2022-09-13T11:06:11;99796.86;;;20.11;70.07
3748;BME280;1889;50.058;8.688;2022-09-13T11:08:47;99793.82;;;20.25;70.73
3748;BME280;1889;50.058;8.688;2022-09-13T11:11:25;99793.82;;;20.25;70.73
3748;BME280;1889;50.058;8.688;2022-09-13T11:16:58;99790.49;;;20.49;69.67
3748;BME280;1889;50.058;8.688;2022-09-13T11:25:43;99773.05;;;20.71;69.39
3748;BME280;1889;50.058;8.688;2022-09-13T11:28:41;99765.86;;;20.78;68.78
3748;BME280;1889;50.058;8.688;2022-09-13T11:31:10;99768.47;;;20.73;68.99
3748;BME280;1889;50.058;8.688;2022-09-13T11:36:57;99769.65;;;20.54;69.31
3748;BME280;1889;50.058;8.688;2022-09-13T11:39:30;99762.64;;;20.73;68.82
3748;BME280;1889;50.058;8.688;2022-09-13T11:42:21;99779.69;;;20.85;68.53
3748;BME280;1889;50.058;8.688;2022-09-13T11:45:26;99768.12;;;20.91;68.42
3748;BME280;1889;50.058;8.688;2022-09-13T11:51:18;99754.63;;;20.93;68.49
3748;BME280;1889;50.058;8.688;2022-09-13T11:56:34;99737.97;;;20.82;68.89
3748;BME280;1889;50.058;8.688;2022-09-13T11:59:33;99720.54;;;20.89;68.73
3748;BME280;1889;50.058;8.688;2022-09-13T12:02:11;99722.52;;;20.93;68.52
3748;BME280;1889;50.058;8.688;2022-09-13T12:04:48;99728.09;;;20.90;68.62
3748;BME280;1889;50.058;8.688;2022-09-13T12:07:16;99749.42;;;20.77;69.54
3748;BME280;1889;50.058;8.688;2022-09-13T12:09:52;99737.67;;;20.80;69.82
3748;BME280;1889;50.058;8.688;2022-09-13T12:12:22;99740.28;;;20.94;69.49
3748;BME280;1889;50.058;8.688;2022-09-13T12:15:06;99730.66;;;21.11;68.84
3748;BME280;1889;50.058;8.688;2022-09-13T12:17:46;99722.05;;;21.13;69.09
3748;BME280;1889;50.058;8.688;2022-09-13T12:20:27;99724.82;;;21.12;69.02
3748;BME280;1889;50.058;8.688;2022-09-13T12:22:53;99727.13;;;20.91;70.61
3748;BME280;1889;50.058;8.688;2022-09-13T12:25:24;99719.36;;;21.20;69.53
3748;BME280;1889;50.058;8.688;2022-09-13T12:28:44;99711.80;;;21.40;69.09
3748;BME280;1889;50.058;8.688;2022-09-13T12:30:50;99697.22;;;21.44;69.32
3748;BME280;1889;50.058;8.688;2022-09-13T12:33:15;99697.22;;;21.44;69.32
3748;BME280;1889;50.058;8.688;2022-09-13T12:36:02;99691.45;;;21.62;68.41
3748;BME280;1889;50.058;8.688;2022-09-13T12:44:18;99691.19;;;21.73;67.77
3748;BME280;1889;50.058;8.688;2022-09-13T12:52:30;99689.78;;;21.54;67.37
3748;BME280;1889;50.058;8.688;2022-09-13T12:55:15;99688.63;;;21.26;67.24
3748;BME280;1889;50.058;8.688;2022-09-13T13:00:40;99694.36;;;21.27;68.19
3748;BME280;1889;50.058;8.688;2022-09-13T13:06:04;99692.77;;;21.37;67.22
3748;BME280;1889;50.058;8.688;2022-09-13T13:08:29;99692.34;;;21.43;66.91
3748;BME280;1889;50.058;8.688;2022-09-13T13:11:12;99684.52;;;21.27;67.34
3748;BME280;1889;50.058;8.688;2022-09-13T13:13:56;99684.94;;;21.21;67.73
3748;BME280;1889;50.058;8.688;2022-09-13T13:16:31;99693.73;;;21.36;67.73
3748;BME280;1889;50.058;8.688;2022-09-13T13:21:52;99677.23;;;21.67;66.92
3748;BME280;1889;50.058;8.688;2022-09-13T13:30:03;99677.40;;;21.59;67.63
3748;BME280;1889;50.058;8.688;2022-09-13T13:32:18;99670.53;;;21.10;67.95
3748;BME280;1889;50.058;8.688;2022-09-13T13:34:48;99671.17;;;21.20;67.88
3748;BME280;1889;50.058;8.688;2022-09-13T13:40:18;99667.60;;;21.52;66.98
3748;BME280;1889;50.058;8.688;2022-09-13T13:42:42;99670.09;;;21.74;66.48
3748;BME280;1889;50.058;8.688;2022-09-13T13:45:22;99665.53;;;21.81;66.09
3748;BME280;1889;50.058;8.688;2022-09-13T13:48:08;99663.13;;;21.84;66.25
3748;BME280;1889;50.058;8.688;2022-09-13T13:51:32;99653.63;;;21.98;66.04
3748;BME280;1889;50.058;8.688;2022-09-13T13:53:22;99646.34;;;22.00;66.20
3748;BME280;1889;50.058;8.688;2022-09-13T13:56:14;99639.14;;;22.13;65.55
3748;BME280;1889;50.058;8.688;2022-09-13T13:58:49;99643.37;;;22.10;65.08
3748;BME280;1889;50.058;8.688;2022-09-13T14:01:21;99640.23;;;21.98;64.66
3748;BME280;1889;50.058;8.688;2022-09-13T14:04:04;99637.72;;;22.02;64.81
3748;BME280;1889;50.058;8.688;2022-09-13T14:06:54;99630.34;;;22.11;64.92
3748;BME280;1889;50.058;8.688;2022-09-13T14:12:19;99619.19;;;22.23;64.38
3748;BME280;1889;50.058;8.688;2022-09-13T14:15:10;99618.78;;;22.34;63.75
3748;BME280;1889;50.058;8.688;2022-09-13T14:20:19;99620.02;;;22.36;63.56
3748;BME280;1889;50.058;8.688;2022-09-13T14:22:43;99628.30;;;22.38;63.52
3748;BME280;1889;50.058;8.688;2022-09-13T14:28:07;99623.98;;;22.30;63.33
3748;BME280;1889;50.058;8.688;2022-09-13T14:30:37;99626.43;;;22.28;63.32
3748;BME280;1889;50.058;8.688;2022-09-13T14:33:06;99628.95;;;22.24;63.02
3748;BME280;1889;50.058;8.688;2022-09-13T14:35:39;99629.52;;;22.16;63.18
3748;BME280;1889;50.058;8.688;2022-09-13T14:40:49;99614.88;;;22.15;63.19
3748;BME280;1889;50.058;8.688;2022-09-13T14:48:56;99603.63;;;22.04;63.78
3748;BME280;1889;50.058;8.688;2022-09-13T14:51:42;99609.72;;;21.93;64.13
3748;BME280;1889;50.058;8.688;2022-09-13T14:54:15;99605.77;;;21.99;64.01
3748;BME280;1889;50.058;8.688;2022-09-13T14:56:44;99607.23;;;21.85;64.60
3748;BME280;1889;50.058;8.688;2022-09-13T14:59:30;99596.96;;;21.79;65.09
3748;BME280;1889;50.058;8.688;2022-09-13T15:02:17;99597.17;;;21.76;65.29
3748;BME280;1889;50.058;8.688;2022-09-13T15:04:50;99582.46;;;21.81;65.10
3748;BME280;1889;50.058;8.688;2022-09-13T15:07:31;99578.91;;;21.93;64.55
3748;BME280;1889;50.058;8.688;2022-09-13T15:10:25;99580.25;;;21.93;64.48
3748;BME280;1889;50.058;8.688;2022-09-13T15:15:47;99584.05;;;21.96;64.66
3748;BME280;1889;50.058;8.688;2022-09-13T15:18:25;99584.75;;;21.93;64.57
3748;BME280;1889;50.058;8.688;2022-09-13T15:21:02;99578.53;;;21.92;64.50
3748;BME280;1889;50.058;8.688;2022-09-13T15:23:48;99569.36;;;21.89;64.63
3748;BME280;1889;50.058;8.688;2022-09-13T15:26:18;99567.97;;;21.96;64.46
3748;BME280;1889;50.058;8.688;2022-09-13T15:31:34;99564.22;;;21.99;64.28
3748;BME280;1889;50.058;8.688;2022-09-13T15:34:22;99558.27;;;22.01;64.24
3748;BME280;1889;50.058;8.688;2022-09-13T15:39:49;99554.47;;;21.98;64.60
3748;BME280;1889;50.058;8.688;2022-09-13T15:42:20;99551.63;;;21.94;65.07
3748;BME280;1889;50.058;8.688;2022-09-13T15:44:49;99551.46;;;21.90;65.35
3748;BME280;1889;50.058;8.688;2022-09-13T15:47:18;99550.87;;;21.92;65.26
3748;BME280;1889;50.058;8.688;2022-09-13T15:49:49;99544.95;;;21.81;66.20
3748;BME280;1889;50.058;8.688;2022-09-13T15:52:19;99549.05;;;21.74;66.72
3748;BME280;1889;50.058;8.688;2022-09-13T15:54:50;99542.16;;;21.83;66.21
3748;BME280;1889;50.058;8.688;2022-09-13T16:00:21;99536.40;;;21.94;65.75
3748;BME280;1889;50.058;8.688;2022-09-13T16:02:52;99537.09;;;21.91;65.81
3748;BME280;1889;50.058;8.688;2022-09-13T16:05:21;99532.78;;;21.83;66.18
3748;BME280;1889;50.058;8.688;2022-09-13T16:07:50;99536.70;;;21.84;66.12
3748;BME280;1889;50.058;8.688;2022-09-13T16:10:22;99540.50;;;21.87;65.99